PWSweather.com
Personal Weather Stations
Station Observations
KTXDALLA3
Prestonwood, Dallas, TX 75248

PrestonwoodDallas, TX 75248

Lat: 32.9588078, Lon: -96.7997302

Elevation: 598

Station Type: Davis

http://northdallasweather.com/index.php

Latest ConditionsUpdated 7:30:01 PM CDT Saturday, Oct 20, 2018
Currently Today's Max Today's Min Today's Average
Temperature 64.6°F18.1°C 72.7°F22.6°C 55.9°F13.3°C 63.1°F17.3°C
Dew Point 50.4°F10.2°C 60.5°F15.8°C 48.5°F9.2°C 56.6°F13.7°C
Winds Calm Calm 12.7 mph -20.4 kmh - - 3.2 mph 5.1 kmh
Wind Gusts -- 12.7 mph20.4 kmh - -
Humidity 60% 99% 45% 82%
Pressure 30.28 in1025.4 mb 30.29 in1025.7 mb 30.16 in1021.3 mb -
Precipitation - 0.01 in0.3 mm - -
Hour Temp Dew Point Humidity Winds Wind Gusts Pressure Precip Precip Rate Daily Precip Total
07:30 PM 64.6°F18.1°C 50.4°F10.2°C 60% Calm Calm -- 30.28 in1025.4 mb - 0.00 in0.0 mm 0.01 in0.3 mm
07:00 PM 66.0°F18.9°C 49.9°F9.9°C 56% 2.3 mph N3.7 kmh N 3.5 mph5.6 kmh 30.27 in1025.1 mb - 0.00 in0.0 mm 0.01 in0.3 mm
06:30 PM 68.4°F20.2°C 49.0°F9.4°C 50% 3.5 mph NE5.6 kmh NE 4.6 mph7.4 kmh 30.26 in1024.7 mb - 0.00 in0.0 mm 0.01 in0.3 mm
06:00 PM 70.3°F21.3°C 48.5°F9.2°C 46% 3.5 mph N5.6 kmh N 3.5 mph5.6 kmh 30.25 in1024.4 mb - 0.00 in0.0 mm 0.01 in0.3 mm
05:30 PM 71.9°F22.2°C 51.1°F10.6°C 48% 5.8 mph NNW9.3 kmh NNW 8.1 mph13.0 kmh 30.25 in1024.4 mb - 0.00 in0.0 mm 0.01 in0.3 mm
05:00 PM 72.6°F22.6°C 50.6°F10.3°C 46% 8.1 mph N13.0 kmh N 6.9 mph11.1 kmh 30.24 in1024.0 mb - 0.00 in0.0 mm 0.01 in0.3 mm
04:30 PM 72.6°F22.6°C 50.1°F10.1°C 45% 11.5 mph NE18.5 kmh NE 9.2 mph14.8 kmh 30.23 in1023.7 mb - 0.00 in0.0 mm 0.01 in0.3 mm
04:00 PM 72.7°F22.6°C 52.4°F11.3°C 49% 12.7 mph N20.4 kmh N 12.7 mph20.4 kmh 30.23 in1023.7 mb - 0.00 in0.0 mm 0.01 in0.3 mm
03:30 PM 72.6°F22.6°C 55.0°F12.8°C 54% 6.9 mph N11.1 kmh N 8.1 mph13.0 kmh 30.23 in1023.7 mb - 0.00 in0.0 mm 0.01 in0.3 mm
03:00 PM 71.8°F22.1°C 57.2°F14.0°C 60% 11.5 mph N18.5 kmh N 11.5 mph18.5 kmh 30.23 in1023.7 mb - 0.00 in0.0 mm 0.01 in0.3 mm
02:30 PM 71.7°F22.1°C 58.9°F14.9°C 64% 9.2 mph NNE14.8 kmh NNE 6.9 mph11.1 kmh 30.23 in1023.7 mb - 0.00 in0.0 mm 0.01 in0.3 mm
02:00 PM 71.1°F21.7°C 59.6°F15.3°C 67% 3.5 mph NNE5.6 kmh NNE 4.6 mph7.4 kmh 30.23 in1023.7 mb - 0.00 in0.0 mm 0.01 in0.3 mm
01:30 PM 69.8°F21.0°C 60.0°F15.6°C 71% 8.1 mph N13.0 kmh N 11.5 mph18.5 kmh 30.25 in1024.4 mb - 0.00 in0.0 mm 0.01 in0.3 mm
01:00 PM 67.6°F19.8°C 60.5°F15.8°C 78% 5.8 mph NE9.3 kmh NE 8.1 mph13.0 kmh 30.26 in1024.7 mb - 0.00 in0.0 mm 0.01 in0.3 mm
12:30 PM 65.7°F18.7°C 60.0°F15.6°C 82% 1.2 mph N1.9 kmh N 3.5 mph5.6 kmh 30.27 in1025.1 mb - 0.00 in0.0 mm 0.01 in0.3 mm
12:00 PM 62.9°F17.2°C 58.7°F14.8°C 86% 8.1 mph NNE13.0 kmh NNE 4.6 mph7.4 kmh 30.28 in1025.4 mb - 0.00 in0.0 mm 0.01 in0.3 mm
11:30 AM 61.1°F16.2°C 58.1°F14.5°C 90% 3.5 mph NE5.6 kmh NE 9.2 mph14.8 kmh 30.29 in1025.7 mb - 0.00 in0.0 mm 0.01 in0.3 mm
11:00 AM 59.9°F15.5°C 57.5°F14.2°C 92% 3.5 mph NNE5.6 kmh NNE 8.1 mph13.0 kmh 30.28 in1025.4 mb - 0.01 in0.3 mm 0.01 in0.3 mm
10:30 AM 59.3°F15.2°C 57.6°F14.2°C 94% 4.6 mph NNW7.4 kmh NNW 8.1 mph13.0 kmh 30.27 in1025.1 mb - 0.00 in0.0 mm 0.00 in0.0 mm
10:00 AM 58.8°F14.9°C 57.4°F14.1°C 95% 5.8 mph NE9.3 kmh NE 4.6 mph7.4 kmh 30.27 in1025.1 mb - 0.00 in0.0 mm 0.00 in0.0 mm
09:30 AM 58.7°F14.8°C 57.6°F14.2°C 96% 4.6 mph NNE7.4 kmh NNE 9.2 mph14.8 kmh 30.26 in1024.7 mb - 0.00 in0.0 mm 0.00 in0.0 mm
09:00 AM 59.0°F15.0°C 58.5°F14.7°C 98% Calm Calm -- 30.24 in1024.0 mb - 0.00 in0.0 mm 0.00 in0.0 mm
08:30 AM 57.4°F14.1°C 57.1°F13.9°C 99% Calm Calm 1.2 mph1.9 kmh 30.22 in1023.4 mb - 0.00 in0.0 mm 0.00 in0.0 mm
08:00 AM 56.1°F13.4°C 55.5°F13.1°C 98% Calm Calm -- 30.22 in1023.4 mb - 0.00 in0.0 mm 0.00 in0.0 mm
07:30 AM 55.9°F13.3°C 55.3°F12.9°C 98% Calm Calm -- 30.21 in1023.0 mb - 0.00 in0.0 mm 0.00 in0.0 mm
07:00 AM 57.2°F14.0°C 56.4°F13.6°C 97% Calm Calm -- 30.21 in1023.0 mb - 0.00 in0.0 mm 0.00 in0.0 mm
06:30 AM 58.5°F14.7°C 57.7°F14.3°C 97% Calm Calm -- 30.20 in1022.7 mb - 0.00 in0.0 mm 0.00 in0.0 mm
06:00 AM 58.9°F14.9°C 58.1°F14.5°C 97% 1.2 mph N1.9 kmh N 1.2 mph1.9 kmh 30.19 in1022.4 mb - 0.00 in0.0 mm 0.00 in0.0 mm
05:30 AM 59.1°F15.1°C 58.2°F14.6°C 97% Calm Calm 1.2 mph1.9 kmh 30.18 in1022.0 mb - 0.00 in0.0 mm 0.00 in0.0 mm
05:00 AM 59.1°F15.1°C 58.5°F14.7°C 98% Calm Calm -- 30.17 in1021.7 mb - 0.00 in0.0 mm 0.00 in0.0 mm
04:30 AM 59.1°F15.1°C 58.5°F14.7°C 98% Calm Calm 1.2 mph1.9 kmh 30.17 in1021.7 mb - 0.00 in0.0 mm 0.00 in0.0 mm
04:00 AM 59.2°F15.1°C 58.6°F14.8°C 98% 1.2 mph NNW1.9 kmh NNW 1.2 mph1.9 kmh 30.17 in1021.7 mb - 0.00 in0.0 mm 0.00 in0.0 mm
03:30 AM 59.3°F15.2°C 58.7°F14.8°C 98% Calm Calm -- 30.17 in1021.7 mb - 0.00 in0.0 mm 0.00 in0.0 mm
03:00 AM 59.3°F15.2°C 58.7°F14.8°C 98% Calm Calm -- 30.17 in1021.7 mb - 0.00 in0.0 mm 0.00 in0.0 mm
02:30 AM 59.3°F15.2°C 58.7°F14.8°C 98% Calm Calm -- 30.17 in1021.7 mb - 0.00 in0.0 mm 0.00 in0.0 mm
02:00 AM 59.3°F15.2°C 58.7°F14.8°C 98% Calm Calm -- 30.16 in1021.3 mb - 0.00 in0.0 mm 0.00 in0.0 mm
01:30 AM 59.3°F15.2°C 58.7°F14.8°C 98% Calm Calm -- 30.17 in1021.7 mb - 0.00 in0.0 mm 0.00 in0.0 mm
01:00 AM 59.3°F15.2°C 58.7°F14.8°C 98% Calm Calm -- 30.17 in1021.7 mb - 0.00 in0.0 mm 0.00 in0.0 mm
12:30 AM 59.5°F15.3°C 58.9°F14.9°C 98% Calm Calm -- 30.17 in1021.7 mb - 0.00 in0.0 mm 0.00 in0.0 mm
12:00 AM 59.4°F15.2°C 58.8°F14.9°C 98% Calm Calm -- 30.18 in1022.0 mb - 0.00 in0.0 mm 0.00 in0.0 mm